sensor_id;sensor_type;location;lat;lon;timestamp;P1;durP1;ratioP1;P2;durP2;ratioP2
22007;SDS011;11168;56.976;24.168;2023-04-24T00:00:05;5.03;;;3.25;;
22007;SDS011;11168;56.976;24.168;2023-04-24T00:02:32;7.50;;;4.13;;
22007;SDS011;11168;56.976;24.168;2023-04-24T00:05:00;6.57;;;3.88;;
22007;SDS011;11168;56.976;24.168;2023-04-24T00:07:28;8.20;;;4.13;;
22007;SDS011;11168;56.976;24.168;2023-04-24T00:09:56;5.53;;;3.60;;
22007;SDS011;11168;56.976;24.168;2023-04-24T00:12:24;11.45;;;3.90;;
22007;SDS011;11168;56.976;24.168;2023-04-24T00:14:51;7.10;;;3.95;;
22007;SDS011;11168;56.976;24.168;2023-04-24T00:17:20;10.23;;;3.75;;
22007;SDS011;11168;56.976;24.168;2023-04-24T00:19:47;9.30;;;3.55;;
22007;SDS011;11168;56.976;24.168;2023-04-24T00:22:17;6.68;;;3.80;;
22007;SDS011;11168;56.976;24.168;2023-04-24T00:24:47;5.65;;;3.72;;
22007;SDS011;11168;56.976;24.168;2023-04-24T00:27:17;10.60;;;4.00;;
22007;SDS011;11168;56.976;24.168;2023-04-24T00:29:44;5.45;;;3.65;;
22007;SDS011;11168;56.976;24.168;2023-04-24T00:32:11;5.68;;;3.42;;
22007;SDS011;11168;56.976;24.168;2023-04-24T00:34:39;5.18;;;3.42;;
22007;SDS011;11168;56.976;24.168;2023-04-24T00:37:06;5.70;;;3.72;;
22007;SDS011;11168;56.976;24.168;2023-04-24T00:39:33;9.10;;;4.00;;
22007;SDS011;11168;56.976;24.168;2023-04-24T00:42:01;7.22;;;4.10;;
22007;SDS011;11168;56.976;24.168;2023-04-24T00:44:28;5.40;;;3.40;;
22007;SDS011;11168;56.976;24.168;2023-04-24T00:46:56;6.53;;;3.50;;
22007;SDS011;11168;56.976;24.168;2023-04-24T00:49:23;12.57;;;3.75;;
22007;SDS011;11168;56.976;24.168;2023-04-24T00:51:51;6.95;;;3.67;;
22007;SDS011;11168;56.976;24.168;2023-04-24T00:54:20;10.13;;;3.85;;
22007;SDS011;11168;56.976;24.168;2023-04-24T00:56:47;14.80;;;3.97;;
22007;SDS011;11168;56.976;24.168;2023-04-24T00:59:18;7.95;;;3.95;;
22007;SDS011;11168;56.976;24.168;2023-04-24T01:01:45;9.85;;;3.65;;
22007;SDS011;11168;56.976;24.168;2023-04-24T01:04:13;6.82;;;3.65;;
22007;SDS011;11168;56.976;24.168;2023-04-24T01:06:42;4.88;;;3.47;;
22007;SDS011;11168;56.976;24.168;2023-04-24T01:09:10;6.00;;;3.88;;
22007;SDS011;11168;56.976;24.168;2023-04-24T01:11:38;8.15;;;3.70;;
22007;SDS011;11168;56.976;24.168;2023-04-24T01:14:06;10.52;;;3.55;;
22007;SDS011;11168;56.976;24.168;2023-04-24T01:16:34;5.20;;;3.75;;
22007;SDS011;11168;56.976;24.168;2023-04-24T01:19:02;7.28;;;3.88;;
22007;SDS011;11168;56.976;24.168;2023-04-24T01:21:29;9.93;;;3.90;;
22007;SDS011;11168;56.976;24.168;2023-04-24T01:23:57;8.27;;;3.97;;
22007;SDS011;11168;56.976;24.168;2023-04-24T01:26:24;8.25;;;3.80;;
22007;SDS011;11168;56.976;24.168;2023-04-24T01:28:52;5.18;;;3.60;;
22007;SDS011;11168;56.976;24.168;2023-04-24T01:31:20;9.13;;;3.40;;
22007;SDS011;11168;56.976;24.168;2023-04-24T01:33:47;11.55;;;4.47;;
22007;SDS011;11168;56.976;24.168;2023-04-24T01:36:14;7.70;;;3.60;;
22007;SDS011;11168;56.976;24.168;2023-04-24T01:38:43;6.65;;;3.45;;
22007;SDS011;11168;56.976;24.168;2023-04-24T01:41:11;7.18;;;3.60;;
22007;SDS011;11168;56.976;24.168;2023-04-24T01:43:38;10.90;;;3.83;;
22007;SDS011;11168;56.976;24.168;2023-04-24T01:46:06;10.05;;;4.00;;
22007;SDS011;11168;56.976;24.168;2023-04-24T01:48:33;8.38;;;3.80;;
22007;SDS011;11168;56.976;24.168;2023-04-24T01:51:00;5.90;;;3.80;;
22007;SDS011;11168;56.976;24.168;2023-04-24T01:53:28;7.93;;;3.80;;
22007;SDS011;11168;56.976;24.168;2023-04-24T01:55:55;9.45;;;3.80;;
22007;SDS011;11168;56.976;24.168;2023-04-24T01:58:22;8.23;;;3.63;;
22007;SDS011;11168;56.976;24.168;2023-04-24T02:00:50;11.32;;;3.40;;
22007;SDS011;11168;56.976;24.168;2023-04-24T02:03:17;9.50;;;3.65;;
22007;SDS011;11168;56.976;24.168;2023-04-24T02:05:45;7.85;;;3.83;;
22007;SDS011;11168;56.976;24.168;2023-04-24T02:08:12;4.55;;;3.25;;
22007;SDS011;11168;56.976;24.168;2023-04-24T02:10:40;7.05;;;3.67;;
22007;SDS011;11168;56.976;24.168;2023-04-24T02:13:07;6.32;;;3.92;;
22007;SDS011;11168;56.976;24.168;2023-04-24T02:15:34;5.05;;;3.70;;
22007;SDS011;11168;56.976;24.168;2023-04-24T02:18:02;4.85;;;3.35;;
22007;SDS011;11168;56.976;24.168;2023-04-24T02:20:29;7.93;;;3.65;;
22007;SDS011;11168;56.976;24.168;2023-04-24T02:22:56;6.65;;;3.42;;
22007;SDS011;11168;56.976;24.168;2023-04-24T02:25:24;5.80;;;3.47;;
22007;SDS011;11168;56.976;24.168;2023-04-24T02:27:51;5.95;;;3.33;;
22007;SDS011;11168;56.976;24.168;2023-04-24T02:30:18;9.27;;;3.78;;
22007;SDS011;11168;56.976;24.168;2023-04-24T02:32:46;7.03;;;3.20;;
22007;SDS011;11168;56.976;24.168;2023-04-24T02:35:13;9.68;;;3.53;;
22007;SDS011;11168;56.976;24.168;2023-04-24T02:37:41;5.25;;;3.33;;
22007;SDS011;11168;56.976;24.168;2023-04-24T02:40:08;8.38;;;3.65;;
22007;SDS011;11168;56.976;24.168;2023-04-24T02:42:37;7.20;;;3.75;;
22007;SDS011;11168;56.976;24.168;2023-04-24T02:45:04;5.53;;;3.90;;
22007;SDS011;11168;56.976;24.168;2023-04-24T02:47:31;7.50;;;3.95;;
22007;SDS011;11168;56.976;24.168;2023-04-24T02:49:59;13.00;;;3.90;;
22007;SDS011;11168;56.976;24.168;2023-04-24T02:52:26;5.82;;;3.60;;
22007;SDS011;11168;56.976;24.168;2023-04-24T02:54:53;9.25;;;4.18;;
22007;SDS011;11168;56.976;24.168;2023-04-24T02:57:21;7.72;;;3.38;;
22007;SDS011;11168;56.976;24.168;2023-04-24T02:59:48;7.22;;;3.40;;
22007;SDS011;11168;56.976;24.168;2023-04-24T03:02:15;6.13;;;3.70;;
22007;SDS011;11168;56.976;24.168;2023-04-24T03:04:43;8.27;;;3.72;;
22007;SDS011;11168;56.976;24.168;2023-04-24T03:07:10;4.93;;;3.50;;
22007;SDS011;11168;56.976;24.168;2023-04-24T03:09:38;4.68;;;3.45;;
22007;SDS011;11168;56.976;24.168;2023-04-24T03:12:05;8.48;;;4.07;;
22007;SDS011;11168;56.976;24.168;2023-04-24T03:14:33;9.65;;;3.65;;
22007;SDS011;11168;56.976;24.168;2023-04-24T03:17:00;7.18;;;3.30;;
22007;SDS011;11168;56.976;24.168;2023-04-24T03:19:28;4.35;;;3.40;;
22007;SDS011;11168;56.976;24.168;2023-04-24T03:21:55;9.80;;;4.07;;
22007;SDS011;11168;56.976;24.168;2023-04-24T03:24:22;7.55;;;3.88;;
22007;SDS011;11168;56.976;24.168;2023-04-24T03:26:50;5.45;;;3.67;;
22007;SDS011;11168;56.976;24.168;2023-04-24T03:29:17;6.70;;;3.90;;
22007;SDS011;11168;56.976;24.168;2023-04-24T03:31:44;7.30;;;3.47;;
22007;SDS011;11168;56.976;24.168;2023-04-24T03:34:12;7.93;;;3.60;;
22007;SDS011;11168;56.976;24.168;2023-04-24T03:36:39;7.13;;;4.07;;
22007;SDS011;11168;56.976;24.168;2023-04-24T03:39:06;9.27;;;4.00;;
22007;SDS011;11168;56.976;24.168;2023-04-24T03:41:34;5.18;;;3.83;;
22007;SDS011;11168;56.976;24.168;2023-04-24T03:44:01;4.65;;;3.50;;
22007;SDS011;11168;56.976;24.168;2023-04-24T03:46:28;6.70;;;3.72;;
22007;SDS011;11168;56.976;24.168;2023-04-24T03:48:56;7.80;;;3.42;;
22007;SDS011;11168;56.976;24.168;2023-04-24T03:51:23;11.50;;;4.15;;
22007;SDS011;11168;56.976;24.168;2023-04-24T03:53:50;6.13;;;3.70;;
22007;SDS011;11168;56.976;24.168;2023-04-24T03:56:17;7.07;;;3.60;;
22007;SDS011;11168;56.976;24.168;2023-04-24T03:58:45;5.63;;;3.83;;
22007;SDS011;11168;56.976;24.168;2023-04-24T04:01:12;9.98;;;3.67;;
22007;SDS011;11168;56.976;24.168;2023-04-24T04:03:42;12.50;;;4.05;;
22007;SDS011;11168;56.976;24.168;2023-04-24T04:06:10;8.38;;;3.80;;
22007;SDS011;11168;56.976;24.168;2023-04-24T04:08:39;7.70;;;3.35;;
22007;SDS011;11168;56.976;24.168;2023-04-24T04:11:06;10.50;;;3.88;;
22007;SDS011;11168;56.976;24.168;2023-04-24T04:13:33;5.57;;;3.88;;
22007;SDS011;11168;56.976;24.168;2023-04-24T04:16:01;10.40;;;3.78;;
22007;SDS011;11168;56.976;24.168;2023-04-24T04:18:28;6.18;;;4.15;;
22007;SDS011;11168;56.976;24.168;2023-04-24T04:20:55;11.63;;;3.80;;
22007;SDS011;11168;56.976;24.168;2023-04-24T04:23:23;9.10;;;4.13;;
22007;SDS011;11168;56.976;24.168;2023-04-24T04:25:50;7.13;;;3.72;;
22007;SDS011;11168;56.976;24.168;2023-04-24T04:28:18;12.18;;;3.63;;
22007;SDS011;11168;56.976;24.168;2023-04-24T04:30:46;14.85;;;4.20;;
22007;SDS011;11168;56.976;24.168;2023-04-24T04:33:13;13.25;;;4.28;;
22007;SDS011;11168;56.976;24.168;2023-04-24T04:35:41;8.85;;;4.00;;
22007;SDS011;11168;56.976;24.168;2023-04-24T04:38:08;10.80;;;4.18;;
22007;SDS011;11168;56.976;24.168;2023-04-24T04:40:37;7.15;;;4.28;;
22007;SDS011;11168;56.976;24.168;2023-04-24T04:43:04;9.63;;;3.75;;
22007;SDS011;11168;56.976;24.168;2023-04-24T04:45:32;10.85;;;3.75;;
22007;SDS011;11168;56.976;24.168;2023-04-24T04:48:00;11.00;;;3.90;;
22007;SDS011;11168;56.976;24.168;2023-04-24T04:50:29;10.68;;;3.70;;
22007;SDS011;11168;56.976;24.168;2023-04-24T04:52:57;6.95;;;3.92;;
22007;SDS011;11168;56.976;24.168;2023-04-24T04:55:24;8.63;;;3.90;;
22007;SDS011;11168;56.976;24.168;2023-04-24T04:57:52;10.38;;;3.78;;
22007;SDS011;11168;56.976;24.168;2023-04-24T05:00:19;5.63;;;3.90;;
22007;SDS011;11168;56.976;24.168;2023-04-24T05:02:47;8.05;;;4.20;;
22007;SDS011;11168;56.976;24.168;2023-04-24T05:05:15;6.97;;;4.18;;
22007;SDS011;11168;56.976;24.168;2023-04-24T05:07:44;8.90;;;4.35;;
22007;SDS011;11168;56.976;24.168;2023-04-24T05:10:11;6.35;;;3.75;;
22007;SDS011;11168;56.976;24.168;2023-04-24T05:12:38;9.93;;;4.10;;
22007;SDS011;11168;56.976;24.168;2023-04-24T05:15:06;9.93;;;4.25;;
22007;SDS011;11168;56.976;24.168;2023-04-24T05:17:33;12.30;;;4.30;;
22007;SDS011;11168;56.976;24.168;2023-04-24T05:20:01;10.10;;;4.15;;
22007;SDS011;11168;56.976;24.168;2023-04-24T05:22:31;9.93;;;4.40;;
22007;SDS011;11168;56.976;24.168;2023-04-24T05:24:59;7.30;;;3.80;;
22007;SDS011;11168;56.976;24.168;2023-04-24T05:27:26;8.02;;;4.35;;
22007;SDS011;11168;56.976;24.168;2023-04-24T05:29:53;13.32;;;4.60;;
22007;SDS011;11168;56.976;24.168;2023-04-24T05:32:21;8.95;;;4.20;;
22007;SDS011;11168;56.976;24.168;2023-04-24T05:34:48;15.63;;;4.43;;
22007;SDS011;11168;56.976;24.168;2023-04-24T05:37:15;6.03;;;4.18;;
22007;SDS011;11168;56.976;24.168;2023-04-24T05:39:43;7.20;;;4.00;;
22007;SDS011;11168;56.976;24.168;2023-04-24T05:42:10;7.63;;;4.18;;
22007;SDS011;11168;56.976;24.168;2023-04-24T05:44:37;4.53;;;3.72;;
22007;SDS011;11168;56.976;24.168;2023-04-24T05:47:05;8.30;;;4.30;;
22007;SDS011;11168;56.976;24.168;2023-04-24T05:49:32;11.57;;;4.57;;
22007;SDS011;11168;56.976;24.168;2023-04-24T05:51:59;10.13;;;4.65;;
22007;SDS011;11168;56.976;24.168;2023-04-24T05:54:27;12.18;;;4.50;;
22007;SDS011;11168;56.976;24.168;2023-04-24T05:56:54;13.38;;;4.93;;
22007;SDS011;11168;56.976;24.168;2023-04-24T05:59:22;9.20;;;4.47;;
22007;SDS011;11168;56.976;24.168;2023-04-24T06:01:49;9.55;;;4.15;;
22007;SDS011;11168;56.976;24.168;2023-04-24T06:04:17;10.75;;;4.40;;
22007;SDS011;11168;56.976;24.168;2023-04-24T06:06:45;9.10;;;4.60;;
22007;SDS011;11168;56.976;24.168;2023-04-24T06:09:12;10.27;;;4.30;;
22007;SDS011;11168;56.976;24.168;2023-04-24T06:11:39;9.40;;;4.65;;
22007;SDS011;11168;56.976;24.168;2023-04-24T06:14:07;9.27;;;4.55;;
22007;SDS011;11168;56.976;24.168;2023-04-24T06:16:34;9.80;;;5.18;;
22007;SDS011;11168;56.976;24.168;2023-04-24T06:19:01;12.73;;;4.78;;
22007;SDS011;11168;56.976;24.168;2023-04-24T06:21:29;11.02;;;5.22;;
22007;SDS011;11168;56.976;24.168;2023-04-24T06:23:56;10.40;;;4.80;;
22007;SDS011;11168;56.976;24.168;2023-04-24T06:26:24;10.90;;;5.00;;
22007;SDS011;11168;56.976;24.168;2023-04-24T06:28:52;8.43;;;5.07;;
22007;SDS011;11168;56.976;24.168;2023-04-24T06:31:20;11.38;;;5.03;;
22007;SDS011;11168;56.976;24.168;2023-04-24T06:33:48;10.82;;;4.80;;
22007;SDS011;11168;56.976;24.168;2023-04-24T06:36:17;12.43;;;5.28;;
22007;SDS011;11168;56.976;24.168;2023-04-24T06:38:44;8.82;;;4.95;;
22007;SDS011;11168;56.976;24.168;2023-04-24T06:41:11;10.48;;;4.88;;
22007;SDS011;11168;56.976;24.168;2023-04-24T06:43:39;8.40;;;4.53;;
22007;SDS011;11168;56.976;24.168;2023-04-24T06:46:06;8.63;;;4.93;;
22007;SDS011;11168;56.976;24.168;2023-04-24T06:48:34;9.35;;;5.18;;
22007;SDS011;11168;56.976;24.168;2023-04-24T06:51:01;8.93;;;5.07;;
22007;SDS011;11168;56.976;24.168;2023-04-24T06:53:28;8.32;;;5.10;;
22007;SDS011;11168;56.976;24.168;2023-04-24T06:55:56;12.27;;;5.15;;
22007;SDS011;11168;56.976;24.168;2023-04-24T06:58:24;9.82;;;5.07;;
22007;SDS011;11168;56.976;24.168;2023-04-24T07:00:51;7.88;;;4.93;;
22007;SDS011;11168;56.976;24.168;2023-04-24T07:03:19;10.50;;;5.07;;
22007;SDS011;11168;56.976;24.168;2023-04-24T07:05:46;8.38;;;5.05;;
22007;SDS011;11168;56.976;24.168;2023-04-24T07:08:14;10.90;;;5.18;;
22007;SDS011;11168;56.976;24.168;2023-04-24T07:10:43;8.57;;;5.03;;
22007;SDS011;11168;56.976;24.168;2023-04-24T07:13:11;9.38;;;4.90;;
22007;SDS011;11168;56.976;24.168;2023-04-24T07:15:38;10.20;;;5.25;;
22007;SDS011;11168;56.976;24.168;2023-04-24T07:18:07;8.82;;;5.07;;
22007;SDS011;11168;56.976;24.168;2023-04-24T07:20:34;20.40;;;5.47;;
22007;SDS011;11168;56.976;24.168;2023-04-24T07:23:02;11.45;;;4.93;;
22007;SDS011;11168;56.976;24.168;2023-04-24T07:25:29;10.55;;;5.13;;
22007;SDS011;11168;56.976;24.168;2023-04-24T07:27:57;13.73;;;5.93;;
22007;SDS011;11168;56.976;24.168;2023-04-24T07:30:24;15.70;;;5.95;;
22007;SDS011;11168;56.976;24.168;2023-04-24T07:32:52;8.77;;;5.60;;
22007;SDS011;11168;56.976;24.168;2023-04-24T07:35:19;11.52;;;5.28;;
22007;SDS011;11168;56.976;24.168;2023-04-24T07:37:46;17.83;;;5.78;;
22007;SDS011;11168;56.976;24.168;2023-04-24T07:40:14;12.93;;;5.68;;
22007;SDS011;11168;56.976;24.168;2023-04-24T07:42:41;15.80;;;6.38;;
22007;SDS011;11168;56.976;24.168;2023-04-24T07:45:10;14.15;;;6.13;;
22007;SDS011;11168;56.976;24.168;2023-04-24T07:47:37;14.07;;;5.80;;
22007;SDS011;11168;56.976;24.168;2023-04-24T07:50:06;12.35;;;5.80;;
22007;SDS011;11168;56.976;24.168;2023-04-24T07:52:33;13.32;;;6.40;;
22007;SDS011;11168;56.976;24.168;2023-04-24T07:55:00;12.95;;;6.03;;
22007;SDS011;11168;56.976;24.168;2023-04-24T07:57:28;16.63;;;6.03;;
22007;SDS011;11168;56.976;24.168;2023-04-24T07:59:56;10.40;;;5.93;;
22007;SDS011;11168;56.976;24.168;2023-04-24T08:02:23;14.85;;;6.40;;
22007;SDS011;11168;56.976;24.168;2023-04-24T08:04:53;14.68;;;6.18;;
22007;SDS011;11168;56.976;24.168;2023-04-24T08:07:21;13.27;;;6.47;;
22007;SDS011;11168;56.976;24.168;2023-04-24T08:09:48;11.95;;;5.78;;
22007;SDS011;11168;56.976;24.168;2023-04-24T08:12:16;12.43;;;6.57;;
22007;SDS011;11168;56.976;24.168;2023-04-24T08:14:43;21.98;;;6.97;;
22007;SDS011;11168;56.976;24.168;2023-04-24T08:17:10;31.92;;;9.98;;
22007;SDS011;11168;56.976;24.168;2023-04-24T08:19:39;59.72;;;23.00;;
22007;SDS011;11168;56.976;24.168;2023-04-24T08:22:10;33.58;;;14.73;;
22007;SDS011;11168;56.976;24.168;2023-04-24T08:24:37;23.02;;;9.40;;
22007;SDS011;11168;56.976;24.168;2023-04-24T08:27:04;16.15;;;7.30;;
22007;SDS011;11168;56.976;24.168;2023-04-24T08:29:32;19.95;;;6.85;;
22007;SDS011;11168;56.976;24.168;2023-04-24T08:31:59;17.83;;;6.93;;
22007;SDS011;11168;56.976;24.168;2023-04-24T08:34:26;13.85;;;6.50;;
22007;SDS011;11168;56.976;24.168;2023-04-24T08:36:53;14.35;;;6.35;;
22007;SDS011;11168;56.976;24.168;2023-04-24T08:39:21;20.92;;;7.10;;
22007;SDS011;11168;56.976;24.168;2023-04-24T08:41:48;17.73;;;8.02;;
22007;SDS011;11168;56.976;24.168;2023-04-24T08:44:16;18.67;;;6.57;;
22007;SDS011;11168;56.976;24.168;2023-04-24T08:46:43;22.80;;;7.60;;
22007;SDS011;11168;56.976;24.168;2023-04-24T08:49:13;17.98;;;6.97;;
22007;SDS011;11168;56.976;24.168;2023-04-24T08:51:42;16.23;;;6.60;;
22007;SDS011;11168;56.976;24.168;2023-04-24T08:54:11;13.98;;;6.80;;
22007;SDS011;11168;56.976;24.168;2023-04-24T08:56:39;10.18;;;6.40;;
22007;SDS011;11168;56.976;24.168;2023-04-24T08:59:07;15.27;;;6.78;;
22007;SDS011;11168;56.976;24.168;2023-04-24T09:01:35;14.45;;;6.47;;
22007;SDS011;11168;56.976;24.168;2023-04-24T09:04:06;13.70;;;6.53;;
22007;SDS011;11168;56.976;24.168;2023-04-24T09:06:38;15.45;;;6.25;;
22007;SDS011;11168;56.976;24.168;2023-04-24T09:09:05;19.92;;;7.13;;
22007;SDS011;11168;56.976;24.168;2023-04-24T09:11:33;14.48;;;7.00;;
22007;SDS011;11168;56.976;24.168;2023-04-24T09:14:00;17.67;;;6.88;;
22007;SDS011;11168;56.976;24.168;2023-04-24T09:16:28;14.32;;;6.55;;
22007;SDS011;11168;56.976;24.168;2023-04-24T09:18:56;13.10;;;6.80;;
22007;SDS011;11168;56.976;24.168;2023-04-24T09:21:23;14.95;;;6.85;;
22007;SDS011;11168;56.976;24.168;2023-04-24T09:23:57;21.38;;;7.07;;
22007;SDS011;11168;56.976;24.168;2023-04-24T09:26:25;16.23;;;7.47;;
22007;SDS011;11168;56.976;24.168;2023-04-24T09:28:53;17.20;;;7.47;;
22007;SDS011;11168;56.976;24.168;2023-04-24T09:31:20;13.05;;;7.00;;
22007;SDS011;11168;56.976;24.168;2023-04-24T09:33:56;20.00;;;7.50;;
22007;SDS011;11168;56.976;24.168;2023-04-24T09:36:27;14.88;;;6.72;;
22007;SDS011;11168;56.976;24.168;2023-04-24T09:38:58;15.13;;;7.00;;
22007;SDS011;11168;56.976;24.168;2023-04-24T09:41:26;16.80;;;7.65;;
22007;SDS011;11168;56.976;24.168;2023-04-24T09:43:56;17.65;;;7.45;;
22007;SDS011;11168;56.976;24.168;2023-04-24T09:46:30;14.18;;;7.13;;
22007;SDS011;11168;56.976;24.168;2023-04-24T09:49:02;13.85;;;7.40;;
22007;SDS011;11168;56.976;24.168;2023-04-24T09:51:35;16.77;;;11.23;;
22007;SDS011;11168;56.976;24.168;2023-04-24T09:54:03;11.02;;;7.22;;
22007;SDS011;11168;56.976;24.168;2023-04-24T09:56:34;21.05;;;7.15;;
22007;SDS011;11168;56.976;24.168;2023-04-24T09:59:05;14.85;;;7.63;;
22007;SDS011;11168;56.976;24.168;2023-04-24T10:01:33;21.48;;;6.80;;
22007;SDS011;11168;56.976;24.168;2023-04-24T10:04:00;19.77;;;7.38;;
22007;SDS011;11168;56.976;24.168;2023-04-24T10:06:32;19.25;;;7.25;;
22007;SDS011;11168;56.976;24.168;2023-04-24T10:09:00;22.45;;;6.82;;
22007;SDS011;11168;56.976;24.168;2023-04-24T10:11:27;17.02;;;7.25;;
22007;SDS011;11168;56.976;24.168;2023-04-24T10:13:55;19.95;;;6.97;;
22007;SDS011;11168;56.976;24.168;2023-04-24T10:16:23;18.02;;;7.18;;
22007;SDS011;11168;56.976;24.168;2023-04-24T10:18:53;18.73;;;7.05;;
22007;SDS011;11168;56.976;24.168;2023-04-24T10:21:21;14.63;;;6.95;;
22007;SDS011;11168;56.976;24.168;2023-04-24T10:23:49;21.63;;;7.20;;
22007;SDS011;11168;56.976;24.168;2023-04-24T10:26:17;17.63;;;7.50;;
22007;SDS011;11168;56.976;24.168;2023-04-24T10:28:46;21.85;;;7.72;;
22007;SDS011;11168;56.976;24.168;2023-04-24T10:31:13;20.00;;;7.03;;
22007;SDS011;11168;56.976;24.168;2023-04-24T10:33:41;13.25;;;7.38;;
22007;SDS011;11168;56.976;24.168;2023-04-24T10:36:09;20.67;;;7.70;;
22007;SDS011;11168;56.976;24.168;2023-04-24T10:38:38;11.88;;;6.20;;
22007;SDS011;11168;56.976;24.168;2023-04-24T10:41:07;10.05;;;6.10;;
22007;SDS011;11168;56.976;24.168;2023-04-24T10:43:35;13.95;;;6.53;;
22007;SDS011;11168;56.976;24.168;2023-04-24T10:46:04;18.55;;;6.82;;
22007;SDS011;11168;56.976;24.168;2023-04-24T10:48:32;11.10;;;5.95;;
22007;SDS011;11168;56.976;24.168;2023-04-24T10:50:59;18.30;;;7.55;;
22007;SDS011;11168;56.976;24.168;2023-04-24T10:53:28;14.68;;;6.78;;
22007;SDS011;11168;56.976;24.168;2023-04-24T10:56:00;14.45;;;6.20;;
22007;SDS011;11168;56.976;24.168;2023-04-24T10:59:03;12.90;;;6.18;;
22007;SDS011;11168;56.976;24.168;2023-04-24T11:01:23;9.90;;;5.80;;
22007;SDS011;11168;56.976;24.168;2023-04-24T11:03:56;8.82;;;6.18;;
22007;SDS011;11168;56.976;24.168;2023-04-24T11:06:31;13.65;;;6.57;;
22007;SDS011;11168;56.976;24.168;2023-04-24T11:09:05;13.13;;;6.78;;
22007;SDS011;11168;56.976;24.168;2023-04-24T11:11:36;10.77;;;6.32;;
22007;SDS011;11168;56.976;24.168;2023-04-24T11:14:06;8.32;;;5.88;;
22007;SDS011;11168;56.976;24.168;2023-04-24T11:19:06;13.13;;;5.90;;
22007;SDS011;11168;56.976;24.168;2023-04-24T11:24:21;13.80;;;6.10;;
22007;SDS011;11168;56.976;24.168;2023-04-24T11:26:50;19.00;;;7.28;;
22007;SDS011;11168;56.976;24.168;2023-04-24T11:29:19;27.15;;;8.55;;
22007;SDS011;11168;56.976;24.168;2023-04-24T11:31:48;26.77;;;8.55;;
22007;SDS011;11168;56.976;24.168;2023-04-24T11:34:18;24.95;;;7.97;;
22007;SDS011;11168;56.976;24.168;2023-04-24T11:36:46;21.63;;;7.93;;
22007;SDS011;11168;56.976;24.168;2023-04-24T11:39:14;18.17;;;7.40;;
22007;SDS011;11168;56.976;24.168;2023-04-24T11:41:41;16.00;;;6.65;;
22007;SDS011;11168;56.976;24.168;2023-04-24T11:44:09;30.08;;;8.35;;
22007;SDS011;11168;56.976;24.168;2023-04-24T11:46:38;28.60;;;8.15;;
22007;SDS011;11168;56.976;24.168;2023-04-24T11:49:07;22.92;;;8.60;;
22007;SDS011;11168;56.976;24.168;2023-04-24T11:51:34;23.45;;;8.07;;
22007;SDS011;11168;56.976;24.168;2023-04-24T11:54:18;32.85;;;8.43;;
22007;SDS011;11168;56.976;24.168;2023-04-24T11:56:46;24.65;;;8.75;;
22007;SDS011;11168;56.976;24.168;2023-04-24T11:59:14;27.95;;;8.82;;
22007;SDS011;11168;56.976;24.168;2023-04-24T12:01:45;26.65;;;8.27;;
22007;SDS011;11168;56.976;24.168;2023-04-24T12:04:12;20.65;;;8.73;;
22007;SDS011;11168;56.976;24.168;2023-04-24T12:06:58;34.88;;;9.52;;
22007;SDS011;11168;56.976;24.168;2023-04-24T12:09:26;25.55;;;9.38;;
22007;SDS011;11168;56.976;24.168;2023-04-24T12:11:54;22.95;;;8.73;;
22007;SDS011;11168;56.976;24.168;2023-04-24T12:14:24;26.25;;;10.25;;
22007;SDS011;11168;56.976;24.168;2023-04-24T12:16:52;27.65;;;8.93;;
22007;SDS011;11168;56.976;24.168;2023-04-24T12:19:22;18.08;;;8.55;;
22007;SDS011;11168;56.976;24.168;2023-04-24T12:21:59;21.10;;;8.75;;
22007;SDS011;11168;56.976;24.168;2023-04-24T12:24:26;21.15;;;7.95;;
22007;SDS011;11168;56.976;24.168;2023-04-24T12:26:54;16.40;;;8.32;;
22007;SDS011;11168;56.976;24.168;2023-04-24T12:29:22;21.35;;;8.07;;
22007;SDS011;11168;56.976;24.168;2023-04-24T12:31:50;15.85;;;8.07;;
22007;SDS011;11168;56.976;24.168;2023-04-24T12:34:18;17.85;;;7.53;;
22007;SDS011;11168;56.976;24.168;2023-04-24T12:36:47;14.68;;;6.93;;
22007;SDS011;11168;56.976;24.168;2023-04-24T12:39:15;16.65;;;7.50;;
22007;SDS011;11168;56.976;24.168;2023-04-24T12:41:56;19.48;;;7.43;;
22007;SDS011;11168;56.976;24.168;2023-04-24T12:46:57;23.38;;;10.18;;
22007;SDS011;11168;56.976;24.168;2023-04-24T12:49:25;21.15;;;9.27;;
22007;SDS011;11168;56.976;24.168;2023-04-24T12:51:52;27.85;;;9.52;;
22007;SDS011;11168;56.976;24.168;2023-04-24T12:54:20;18.55;;;8.30;;
22007;SDS011;11168;56.976;24.168;2023-04-24T12:56:47;22.63;;;8.82;;
22007;SDS011;11168;56.976;24.168;2023-04-24T12:59:14;19.38;;;9.35;;
22007;SDS011;11168;56.976;24.168;2023-04-24T13:01:42;24.33;;;9.20;;
22007;SDS011;11168;56.976;24.168;2023-04-24T13:04:09;21.10;;;9.48;;
22007;SDS011;11168;56.976;24.168;2023-04-24T13:06:37;17.83;;;8.43;;
22007;SDS011;11168;56.976;24.168;2023-04-24T13:09:04;26.67;;;9.43;;
22007;SDS011;11168;56.976;24.168;2023-04-24T13:11:31;17.65;;;8.80;;
22007;SDS011;11168;56.976;24.168;2023-04-24T13:13:59;21.17;;;10.68;;
22007;SDS011;11168;56.976;24.168;2023-04-24T13:16:26;25.60;;;11.43;;
22007;SDS011;11168;56.976;24.168;2023-04-24T13:18:53;29.88;;;11.65;;
22007;SDS011;11168;56.976;24.168;2023-04-24T13:21:20;27.88;;;13.60;;
22007;SDS011;11168;56.976;24.168;2023-04-24T13:23:48;32.35;;;14.48;;
22007;SDS011;11168;56.976;24.168;2023-04-24T13:26:15;25.67;;;14.10;;
22007;SDS011;11168;56.976;24.168;2023-04-24T13:28:42;33.85;;;12.77;;
22007;SDS011;11168;56.976;24.168;2023-04-24T13:31:10;35.25;;;12.32;;
22007;SDS011;11168;56.976;24.168;2023-04-24T13:33:37;23.50;;;11.27;;
22007;SDS011;11168;56.976;24.168;2023-04-24T13:36:04;31.40;;;10.95;;
22007;SDS011;11168;56.976;24.168;2023-04-24T13:38:32;26.15;;;10.27;;
22007;SDS011;11168;56.976;24.168;2023-04-24T13:40:59;16.17;;;9.45;;
22007;SDS011;11168;56.976;24.168;2023-04-24T13:43:26;23.67;;;10.52;;
22007;SDS011;11168;56.976;24.168;2023-04-24T13:45:53;27.08;;;10.65;;
22007;SDS011;11168;56.976;24.168;2023-04-24T13:48:21;29.15;;;11.75;;
22007;SDS011;11168;56.976;24.168;2023-04-24T13:50:48;23.88;;;11.88;;
22007;SDS011;11168;56.976;24.168;2023-04-24T13:53:16;27.05;;;13.05;;
22007;SDS011;11168;56.976;24.168;2023-04-24T13:55:44;25.63;;;12.32;;
22007;SDS011;11168;56.976;24.168;2023-04-24T13:58:12;20.77;;;11.98;;
22007;SDS011;11168;56.976;24.168;2023-04-24T14:00:39;18.10;;;12.43;;
22007;SDS011;11168;56.976;24.168;2023-04-24T14:03:06;24.83;;;12.27;;
22007;SDS011;11168;56.976;24.168;2023-04-24T14:05:34;29.40;;;11.93;;
22007;SDS011;11168;56.976;24.168;2023-04-24T14:08:04;23.70;;;11.90;;
22007;SDS011;11168;56.976;24.168;2023-04-24T14:10:32;23.10;;;12.27;;
22007;SDS011;11168;56.976;24.168;2023-04-24T14:12:59;23.73;;;13.27;;
22007;SDS011;11168;56.976;24.168;2023-04-24T14:15:26;24.98;;;13.35;;
22007;SDS011;11168;56.976;24.168;2023-04-24T14:17:54;22.23;;;13.10;;
22007;SDS011;11168;56.976;24.168;2023-04-24T14:20:21;29.25;;;12.73;;
22007;SDS011;11168;56.976;24.168;2023-04-24T14:22:48;23.10;;;12.23;;
22007;SDS011;11168;56.976;24.168;2023-04-24T14:25:16;17.20;;;11.73;;
22007;SDS011;11168;56.976;24.168;2023-04-24T14:27:43;22.23;;;11.40;;
22007;SDS011;11168;56.976;24.168;2023-04-24T14:30:11;20.00;;;11.07;;
22007;SDS011;11168;56.976;24.168;2023-04-24T14:32:39;32.05;;;10.18;;
22007;SDS011;11168;56.976;24.168;2023-04-24T14:35:07;22.67;;;10.98;;
22007;SDS011;11168;56.976;24.168;2023-04-24T14:37:34;20.88;;;10.63;;